sensor_id;sensor_type;location;lat;lon;timestamp;P1;durP1;ratioP1;P2;durP2;ratioP2
23594;SDS011;11975;47.674;9.472;2022-11-15T00:00:51;30.05;;;28.35;;
23594;SDS011;11975;47.674;9.472;2022-11-15T00:03:18;29.50;;;27.80;;
23594;SDS011;11975;47.674;9.472;2022-11-15T00:05:48;29.02;;;27.40;;
23594;SDS011;11975;47.674;9.472;2022-11-15T00:08:14;28.98;;;27.27;;
23594;SDS011;11975;47.674;9.472;2022-11-15T00:10:40;28.48;;;26.88;;
23594;SDS011;11975;47.674;9.472;2022-11-15T00:13:07;29.33;;;27.67;;
23594;SDS011;11975;47.674;9.472;2022-11-15T00:15:37;30.60;;;28.48;;
23594;SDS011;11975;47.674;9.472;2022-11-15T00:18:03;29.90;;;28.00;;
23594;SDS011;11975;47.674;9.472;2022-11-15T00:20:31;29.40;;;27.75;;
23594;SDS011;11975;47.674;9.472;2022-11-15T00:22:59;29.27;;;27.63;;
23594;SDS011;11975;47.674;9.472;2022-11-15T00:25:25;29.30;;;27.65;;
23594;SDS011;11975;47.674;9.472;2022-11-15T00:30:22;29.88;;;28.15;;
23594;SDS011;11975;47.674;9.472;2022-11-15T00:32:48;29.75;;;28.05;;
23594;SDS011;11975;47.674;9.472;2022-11-15T00:35:14;29.67;;;28.00;;
23594;SDS011;11975;47.674;9.472;2022-11-15T00:37:40;28.50;;;26.90;;
23594;SDS011;11975;47.674;9.472;2022-11-15T00:40:06;28.10;;;26.50;;
23594;SDS011;11975;47.674;9.472;2022-11-15T00:42:33;28.65;;;27.05;;
23594;SDS011;11975;47.674;9.472;2022-11-15T00:44:59;27.63;;;26.08;;
23594;SDS011;11975;47.674;9.472;2022-11-15T00:47:25;29.15;;;27.33;;
23594;SDS011;11975;47.674;9.472;2022-11-15T00:49:51;29.05;;;27.42;;
23594;SDS011;11975;47.674;9.472;2022-11-15T00:52:17;28.80;;;27.10;;
23594;SDS011;11975;47.674;9.472;2022-11-15T00:54:43;27.67;;;26.13;;
23594;SDS011;11975;47.674;9.472;2022-11-15T00:57:09;28.67;;;27.02;;
23594;SDS011;11975;47.674;9.472;2022-11-15T00:59:35;28.60;;;27.00;;
23594;SDS011;11975;47.674;9.472;2022-11-15T01:02:01;29.25;;;27.58;;
23594;SDS011;11975;47.674;9.472;2022-11-15T01:04:27;27.23;;;25.70;;
23594;SDS011;11975;47.674;9.472;2022-11-15T01:06:53;28.15;;;26.55;;
23594;SDS011;11975;47.674;9.472;2022-11-15T01:09:19;27.65;;;26.10;;
23594;SDS011;11975;47.674;9.472;2022-11-15T01:11:45;26.38;;;24.90;;
23594;SDS011;11975;47.674;9.472;2022-11-15T01:14:11;26.90;;;25.38;;
23594;SDS011;11975;47.674;9.472;2022-11-15T01:16:37;28.50;;;26.90;;
23594;SDS011;11975;47.674;9.472;2022-11-15T01:19:03;28.33;;;26.73;;
23594;SDS011;11975;47.674;9.472;2022-11-15T01:21:29;26.65;;;25.15;;
23594;SDS011;11975;47.674;9.472;2022-11-15T01:23:55;26.00;;;24.55;;
23594;SDS011;11975;47.674;9.472;2022-11-15T01:26:22;25.63;;;24.20;;
23594;SDS011;11975;47.674;9.472;2022-11-15T01:28:48;27.80;;;26.23;;
23594;SDS011;11975;47.674;9.472;2022-11-15T01:31:15;28.20;;;26.60;;
23594;SDS011;11975;47.674;9.472;2022-11-15T01:33:43;28.17;;;26.60;;
23594;SDS011;11975;47.674;9.472;2022-11-15T01:36:14;28.27;;;26.58;;
23594;SDS011;11975;47.674;9.472;2022-11-15T01:38:41;27.88;;;26.08;;
23594;SDS011;11975;47.674;9.472;2022-11-15T01:41:14;26.35;;;24.85;;
23594;SDS011;11975;47.674;9.472;2022-11-15T01:43:41;25.55;;;24.10;;
23594;SDS011;11975;47.674;9.472;2022-11-15T01:46:23;27.33;;;25.77;;
23594;SDS011;11975;47.674;9.472;2022-11-15T01:48:52;27.00;;;25.50;;
23594;SDS011;11975;47.674;9.472;2022-11-15T01:51:20;26.88;;;25.27;;
23594;SDS011;11975;47.674;9.472;2022-11-15T01:53:48;25.02;;;23.63;;
23594;SDS011;11975;47.674;9.472;2022-11-15T01:56:16;26.38;;;24.88;;
23594;SDS011;11975;47.674;9.472;2022-11-15T01:58:44;25.67;;;24.17;;
23594;SDS011;11975;47.674;9.472;2022-11-15T02:01:11;24.80;;;23.40;;
23594;SDS011;11975;47.674;9.472;2022-11-15T02:03:48;24.88;;;23.48;;
23594;SDS011;11975;47.674;9.472;2022-11-15T02:06:16;25.23;;;23.75;;
23594;SDS011;11975;47.674;9.472;2022-11-15T02:08:43;24.98;;;23.58;;
23594;SDS011;11975;47.674;9.472;2022-11-15T02:11:09;26.33;;;24.83;;
23594;SDS011;11975;47.674;9.472;2022-11-15T02:13:36;27.42;;;25.90;;
23594;SDS011;11975;47.674;9.472;2022-11-15T02:18:41;26.38;;;24.88;;
23594;SDS011;11975;47.674;9.472;2022-11-15T02:24:58;25.02;;;23.63;;
23594;SDS011;11975;47.674;9.472;2022-11-15T02:32:20;26.95;;;25.45;;
23594;SDS011;11975;47.674;9.472;2022-11-15T02:37:35;29.42;;;27.73;;
23594;SDS011;11975;47.674;9.472;2022-11-15T02:42:54;32.00;;;30.00;;
23594;SDS011;11975;47.674;9.472;2022-11-15T02:45:44;29.65;;;27.98;;
23594;SDS011;11975;47.674;9.472;2022-11-15T02:48:13;31.63;;;29.83;;
23594;SDS011;11975;47.674;9.472;2022-11-15T02:53:07;28.38;;;26.77;;
23594;SDS011;11975;47.674;9.472;2022-11-15T02:55:34;29.48;;;27.77;;
23594;SDS011;11975;47.674;9.472;2022-11-15T03:00:32;30.02;;;28.33;;
23594;SDS011;11975;47.674;9.472;2022-11-15T03:03:27;29.60;;;27.90;;
23594;SDS011;11975;47.674;9.472;2022-11-15T03:06:33;28.42;;;26.83;;
23594;SDS011;11975;47.674;9.472;2022-11-15T03:11:36;30.50;;;28.80;;
23594;SDS011;11975;47.674;9.472;2022-11-15T03:14:20;30.83;;;29.02;;
23594;SDS011;11975;47.674;9.472;2022-11-15T03:19:25;30.85;;;29.08;;
23594;SDS011;11975;47.674;9.472;2022-11-15T03:21:55;31.25;;;29.45;;
23594;SDS011;11975;47.674;9.472;2022-11-15T03:24:21;29.95;;;28.25;;
23594;SDS011;11975;47.674;9.472;2022-11-15T03:26:50;30.23;;;28.52;;
23594;SDS011;11975;47.674;9.472;2022-11-15T03:29:19;30.23;;;28.52;;
23594;SDS011;11975;47.674;9.472;2022-11-15T03:31:50;29.27;;;27.58;;
23594;SDS011;11975;47.674;9.472;2022-11-15T03:34:19;29.50;;;27.80;;
23594;SDS011;11975;47.674;9.472;2022-11-15T03:36:49;28.30;;;26.70;;
23594;SDS011;11975;47.674;9.472;2022-11-15T03:39:16;29.02;;;27.40;;
23594;SDS011;11975;47.674;9.472;2022-11-15T03:42:06;28.90;;;27.15;;
23594;SDS011;11975;47.674;9.472;2022-11-15T03:47:53;29.45;;;27.75;;
23594;SDS011;11975;47.674;9.472;2022-11-15T03:50:41;28.48;;;26.88;;
23594;SDS011;11975;47.674;9.472;2022-11-15T03:53:08;30.52;;;28.77;;
23594;SDS011;11975;47.674;9.472;2022-11-15T03:55:34;29.50;;;27.83;;
23594;SDS011;11975;47.674;9.472;2022-11-15T03:58:00;29.80;;;28.10;;
23594;SDS011;11975;47.674;9.472;2022-11-15T04:00:27;28.90;;;27.30;;
23594;SDS011;11975;47.674;9.472;2022-11-15T04:02:53;29.90;;;28.20;;
23594;SDS011;11975;47.674;9.472;2022-11-15T04:05:19;29.33;;;27.63;;
23594;SDS011;11975;47.674;9.472;2022-11-15T04:07:45;28.15;;;26.55;;
23594;SDS011;11975;47.674;9.472;2022-11-15T04:10:11;27.83;;;26.25;;
23594;SDS011;11975;47.674;9.472;2022-11-15T04:12:38;27.25;;;25.73;;
23594;SDS011;11975;47.674;9.472;2022-11-15T04:15:08;27.02;;;25.52;;
23594;SDS011;11975;47.674;9.472;2022-11-15T04:17:40;25.77;;;24.35;;
23594;SDS011;11975;47.674;9.472;2022-11-15T04:20:07;25.77;;;24.35;;
23594;SDS011;11975;47.674;9.472;2022-11-15T04:23:00;25.38;;;23.95;;
23594;SDS011;11975;47.674;9.472;2022-11-15T04:25:45;25.40;;;24.00;;
23594;SDS011;11975;47.674;9.472;2022-11-15T04:28:14;25.63;;;24.20;;
23594;SDS011;11975;47.674;9.472;2022-11-15T04:30:40;25.58;;;24.17;;
23594;SDS011;11975;47.674;9.472;2022-11-15T04:33:06;26.20;;;24.70;;
23594;SDS011;11975;47.674;9.472;2022-11-15T04:35:32;25.10;;;23.70;;
23594;SDS011;11975;47.674;9.472;2022-11-15T04:37:58;25.70;;;24.20;;
23594;SDS011;11975;47.674;9.472;2022-11-15T04:40:26;26.60;;;24.58;;
23594;SDS011;11975;47.674;9.472;2022-11-15T04:42:52;26.40;;;24.90;;
23594;SDS011;11975;47.674;9.472;2022-11-15T04:45:18;28.38;;;26.77;;
23594;SDS011;11975;47.674;9.472;2022-11-15T04:47:44;30.17;;;28.48;;
23594;SDS011;11975;47.674;9.472;2022-11-15T04:50:11;30.40;;;28.60;;
23594;SDS011;11975;47.674;9.472;2022-11-15T04:52:42;31.27;;;29.48;;
23594;SDS011;11975;47.674;9.472;2022-11-15T04:55:15;32.72;;;30.85;;
23594;SDS011;11975;47.674;9.472;2022-11-15T04:57:41;35.30;;;32.88;;
23594;SDS011;11975;47.674;9.472;2022-11-15T05:00:08;33.90;;;32.00;;
23594;SDS011;11975;47.674;9.472;2022-11-15T05:02:36;35.47;;;32.92;;
23594;SDS011;11975;47.674;9.472;2022-11-15T05:05:20;34.15;;;32.15;;
23594;SDS011;11975;47.674;9.472;2022-11-15T05:07:46;34.47;;;32.47;;
23594;SDS011;11975;47.674;9.472;2022-11-15T05:10:12;36.60;;;34.30;;
23594;SDS011;11975;47.674;9.472;2022-11-15T05:12:38;35.63;;;33.40;;
23594;SDS011;11975;47.674;9.472;2022-11-15T05:15:04;36.45;;;34.15;;
23594;SDS011;11975;47.674;9.472;2022-11-15T05:17:31;34.53;;;32.53;;
23594;SDS011;11975;47.674;9.472;2022-11-15T05:19:57;33.28;;;31.08;;
23594;SDS011;11975;47.674;9.472;2022-11-15T05:22:23;33.05;;;31.05;;
23594;SDS011;11975;47.674;9.472;2022-11-15T05:24:49;32.83;;;30.83;;
23594;SDS011;11975;47.674;9.472;2022-11-15T05:27:14;34.53;;;32.13;;
23594;SDS011;11975;47.674;9.472;2022-11-15T05:29:40;32.67;;;30.77;;
23594;SDS011;11975;47.674;9.472;2022-11-15T05:32:07;32.38;;;30.30;;
23594;SDS011;11975;47.674;9.472;2022-11-15T05:34:34;34.55;;;32.25;;
23594;SDS011;11975;47.674;9.472;2022-11-15T05:37:00;32.95;;;31.02;;
23594;SDS011;11975;47.674;9.472;2022-11-15T05:39:26;34.08;;;31.35;;
23594;SDS011;11975;47.674;9.472;2022-11-15T05:41:53;33.00;;;31.00;;
23594;SDS011;11975;47.674;9.472;2022-11-15T05:44:21;35.10;;;32.72;;
23594;SDS011;11975;47.674;9.472;2022-11-15T05:46:49;33.00;;;31.00;;
23594;SDS011;11975;47.674;9.472;2022-11-15T05:51:42;32.90;;;30.85;;
23594;SDS011;11975;47.674;9.472;2022-11-15T05:54:09;34.30;;;32.10;;
23594;SDS011;11975;47.674;9.472;2022-11-15T05:56:35;34.28;;;31.95;;
23594;SDS011;11975;47.674;9.472;2022-11-15T05:59:01;34.00;;;31.75;;
23594;SDS011;11975;47.674;9.472;2022-11-15T06:01:28;33.83;;;31.73;;
23594;SDS011;11975;47.674;9.472;2022-11-15T06:03:54;32.92;;;30.80;;
23594;SDS011;11975;47.674;9.472;2022-11-15T06:06:20;33.95;;;31.95;;
23594;SDS011;11975;47.674;9.472;2022-11-15T06:08:46;33.95;;;31.80;;
23594;SDS011;11975;47.674;9.472;2022-11-15T06:11:13;34.95;;;32.90;;
23594;SDS011;11975;47.674;9.472;2022-11-15T06:13:39;33.90;;;31.90;;
23594;SDS011;11975;47.674;9.472;2022-11-15T06:16:05;35.28;;;32.83;;
23594;SDS011;11975;47.674;9.472;2022-11-15T06:18:32;35.13;;;32.83;;
23594;SDS011;11975;47.674;9.472;2022-11-15T06:20:59;34.97;;;32.58;;
23594;SDS011;11975;47.674;9.472;2022-11-15T06:23:25;35.97;;;33.57;;
23594;SDS011;11975;47.674;9.472;2022-11-15T06:25:51;36.55;;;33.78;;
23594;SDS011;11975;47.674;9.472;2022-11-15T06:28:17;35.65;;;33.55;;
23594;SDS011;11975;47.674;9.472;2022-11-15T06:30:43;35.35;;;33.22;;
23594;SDS011;11975;47.674;9.472;2022-11-15T06:33:09;35.90;;;33.65;;
23594;SDS011;11975;47.674;9.472;2022-11-15T06:35:35;35.72;;;33.45;;
23594;SDS011;11975;47.674;9.472;2022-11-15T06:38:05;36.77;;;34.17;;
23594;SDS011;11975;47.674;9.472;2022-11-15T06:40:35;35.55;;;33.20;;
23594;SDS011;11975;47.674;9.472;2022-11-15T06:43:02;36.90;;;34.67;;
23594;SDS011;11975;47.674;9.472;2022-11-15T06:45:29;36.33;;;34.22;;
23594;SDS011;11975;47.674;9.472;2022-11-15T06:47:55;37.22;;;34.92;;
23594;SDS011;11975;47.674;9.472;2022-11-15T06:50:21;39.97;;;34.80;;
23594;SDS011;11975;47.674;9.472;2022-11-15T06:52:47;35.75;;;33.50;;
23594;SDS011;11975;47.674;9.472;2022-11-15T06:55:13;36.65;;;34.17;;
23594;SDS011;11975;47.674;9.472;2022-11-15T06:57:46;37.22;;;34.55;;
23594;SDS011;11975;47.674;9.472;2022-11-15T07:00:13;37.88;;;34.85;;
23594;SDS011;11975;47.674;9.472;2022-11-15T07:02:39;37.43;;;35.07;;
23594;SDS011;11975;47.674;9.472;2022-11-15T07:05:05;37.65;;;34.83;;
23594;SDS011;11975;47.674;9.472;2022-11-15T07:07:31;37.25;;;34.47;;
23594;SDS011;11975;47.674;9.472;2022-11-15T07:09:57;37.70;;;33.97;;
23594;SDS011;11975;47.674;9.472;2022-11-15T07:12:23;36.38;;;34.17;;
23594;SDS011;11975;47.674;9.472;2022-11-15T07:14:49;36.28;;;33.95;;
23594;SDS011;11975;47.674;9.472;2022-11-15T07:17:15;34.85;;;32.75;;
23594;SDS011;11975;47.674;9.472;2022-11-15T07:19:41;35.22;;;33.15;;
23594;SDS011;11975;47.674;9.472;2022-11-15T07:22:07;36.47;;;33.50;;
23594;SDS011;11975;47.674;9.472;2022-11-15T07:24:33;34.53;;;32.50;;
23594;SDS011;11975;47.674;9.472;2022-11-15T07:26:59;36.70;;;33.45;;
23594;SDS011;11975;47.674;9.472;2022-11-15T07:29:25;35.70;;;33.50;;
23594;SDS011;11975;47.674;9.472;2022-11-15T07:31:51;35.00;;;32.80;;
23594;SDS011;11975;47.674;9.472;2022-11-15T07:34:17;33.53;;;31.50;;
23594;SDS011;11975;47.674;9.472;2022-11-15T07:36:43;33.15;;;31.20;;
23594;SDS011;11975;47.674;9.472;2022-11-15T07:39:08;35.25;;;32.53;;
23594;SDS011;11975;47.674;9.472;2022-11-15T07:41:35;34.15;;;32.15;;
23594;SDS011;11975;47.674;9.472;2022-11-15T07:44:01;34.50;;;32.30;;
23594;SDS011;11975;47.674;9.472;2022-11-15T07:46:27;35.67;;;33.33;;
23594;SDS011;11975;47.674;9.472;2022-11-15T07:48:53;34.58;;;32.30;;
23594;SDS011;11975;47.674;9.472;2022-11-15T07:51:19;33.63;;;31.42;;
23594;SDS011;11975;47.674;9.472;2022-11-15T07:53:45;33.45;;;31.50;;
23594;SDS011;11975;47.674;9.472;2022-11-15T07:56:11;35.40;;;32.58;;
23594;SDS011;11975;47.674;9.472;2022-11-15T07:58:37;34.47;;;32.30;;
23594;SDS011;11975;47.674;9.472;2022-11-15T08:01:06;33.17;;;31.23;;
23594;SDS011;11975;47.674;9.472;2022-11-15T08:03:34;32.80;;;30.90;;
23594;SDS011;11975;47.674;9.472;2022-11-15T08:06:00;33.38;;;30.75;;
23594;SDS011;11975;47.674;9.472;2022-11-15T08:08:26;32.92;;;30.95;;
23594;SDS011;11975;47.674;9.472;2022-11-15T08:10:52;32.67;;;30.58;;
23594;SDS011;11975;47.674;9.472;2022-11-15T08:13:18;32.05;;;30.25;;
23594;SDS011;11975;47.674;9.472;2022-11-15T08:15:44;31.60;;;29.70;;
23594;SDS011;11975;47.674;9.472;2022-11-15T08:18:11;30.33;;;28.58;;
23594;SDS011;11975;47.674;9.472;2022-11-15T08:20:39;31.52;;;29.73;;
23594;SDS011;11975;47.674;9.472;2022-11-15T08:23:06;31.23;;;29.47;;
23594;SDS011;11975;47.674;9.472;2022-11-15T08:25:33;31.17;;;29.38;;
23594;SDS011;11975;47.674;9.472;2022-11-15T08:28:01;29.17;;;27.27;;
23594;SDS011;11975;47.674;9.472;2022-11-15T08:30:29;26.05;;;24.48;;
23594;SDS011;11975;47.674;9.472;2022-11-15T08:32:57;26.77;;;24.98;;
23594;SDS011;11975;47.674;9.472;2022-11-15T08:37:49;26.45;;;24.95;;
23594;SDS011;11975;47.674;9.472;2022-11-15T08:40:18;30.15;;;27.52;;
23594;SDS011;11975;47.674;9.472;2022-11-15T08:42:48;27.67;;;26.02;;
23594;SDS011;11975;47.674;9.472;2022-11-15T08:45:14;27.52;;;25.92;;
23594;SDS011;11975;47.674;9.472;2022-11-15T08:47:40;28.48;;;26.33;;
23594;SDS011;11975;47.674;9.472;2022-11-15T08:50:06;26.48;;;24.98;;
23594;SDS011;11975;47.674;9.472;2022-11-15T08:52:32;25.55;;;23.95;;
23594;SDS011;11975;47.674;9.472;2022-11-15T08:54:59;25.70;;;23.75;;
23594;SDS011;11975;47.674;9.472;2022-11-15T08:57:24;25.60;;;23.80;;
23594;SDS011;11975;47.674;9.472;2022-11-15T08:59:53;25.70;;;24.13;;
23594;SDS011;11975;47.674;9.472;2022-11-15T09:02:19;27.77;;;25.83;;
23594;SDS011;11975;47.674;9.472;2022-11-15T09:04:46;28.02;;;26.33;;
23594;SDS011;11975;47.674;9.472;2022-11-15T09:07:12;28.52;;;26.63;;
23594;SDS011;11975;47.674;9.472;2022-11-15T09:09:39;28.67;;;26.90;;
23594;SDS011;11975;47.674;9.472;2022-11-15T09:12:05;28.42;;;26.83;;
23594;SDS011;11975;47.674;9.472;2022-11-15T09:14:31;27.80;;;26.07;;
23594;SDS011;11975;47.674;9.472;2022-11-15T09:16:58;25.92;;;24.42;;
23594;SDS011;11975;47.674;9.472;2022-11-15T09:19:23;26.25;;;24.75;;
23594;SDS011;11975;47.674;9.472;2022-11-15T09:21:50;25.80;;;24.30;;
23594;SDS011;11975;47.674;9.472;2022-11-15T09:24:16;25.38;;;23.88;;
23594;SDS011;11975;47.674;9.472;2022-11-15T09:26:42;26.80;;;25.00;;
23594;SDS011;11975;47.674;9.472;2022-11-15T09:29:09;24.52;;;23.13;;
23594;SDS011;11975;47.674;9.472;2022-11-15T09:31:35;26.05;;;24.55;;
23594;SDS011;11975;47.674;9.472;2022-11-15T09:34:01;27.73;;;26.02;;
23594;SDS011;11975;47.674;9.472;2022-11-15T09:36:27;26.50;;;24.70;;
23594;SDS011;11975;47.674;9.472;2022-11-15T09:38:53;25.45;;;24.02;;
23594;SDS011;11975;47.674;9.472;2022-11-15T09:44:07;26.33;;;24.65;;
23594;SDS011;11975;47.674;9.472;2022-11-15T09:46:49;27.77;;;25.83;;
23594;SDS011;11975;47.674;9.472;2022-11-15T09:49:29;27.63;;;25.85;;
23594;SDS011;11975;47.674;9.472;2022-11-15T09:51:55;28.47;;;26.67;;
23594;SDS011;11975;47.674;9.472;2022-11-15T09:54:34;29.58;;;27.38;;
23594;SDS011;11975;47.674;9.472;2022-11-15T10:02:40;28.52;;;26.73;;
23594;SDS011;11975;47.674;9.472;2022-11-15T10:05:14;27.17;;;25.58;;
23594;SDS011;11975;47.674;9.472;2022-11-15T10:08:01;26.25;;;24.73;;
23594;SDS011;11975;47.674;9.472;2022-11-15T10:13:06;26.17;;;24.67;;
23594;SDS011;11975;47.674;9.472;2022-11-15T10:15:37;25.20;;;23.60;;
23594;SDS011;11975;47.674;9.472;2022-11-15T10:18:21;25.75;;;24.23;;
23594;SDS011;11975;47.674;9.472;2022-11-15T10:20:56;25.83;;;24.17;;
23594;SDS011;11975;47.674;9.472;2022-11-15T10:23:31;27.50;;;25.63;;
23594;SDS011;11975;47.674;9.472;2022-11-15T10:25:58;25.33;;;23.85;;
23594;SDS011;11975;47.674;9.472;2022-11-15T10:30:55;25.73;;;24.25;;
23594;SDS011;11975;47.674;9.472;2022-11-15T10:41:17;27.05;;;25.45;;
23594;SDS011;11975;47.674;9.472;2022-11-15T10:44:08;27.73;;;26.13;;
23594;SDS011;11975;47.674;9.472;2022-11-15T10:46:39;25.27;;;23.83;;
23594;SDS011;11975;47.674;9.472;2022-11-15T10:49:16;25.60;;;24.00;;
23594;SDS011;11975;47.674;9.472;2022-11-15T10:51:49;25.33;;;23.93;;
23594;SDS011;11975;47.674;9.472;2022-11-15T10:54:36;26.58;;;24.88;;
23594;SDS011;11975;47.674;9.472;2022-11-15T10:57:06;26.77;;;25.08;;
23594;SDS011;11975;47.674;9.472;2022-11-15T10:59:36;25.02;;;23.63;;
23594;SDS011;11975;47.674;9.472;2022-11-15T11:02:22;24.80;;;23.30;;
23594;SDS011;11975;47.674;9.472;2022-11-15T11:05:00;27.67;;;25.83;;
23594;SDS011;11975;47.674;9.472;2022-11-15T11:07:28;26.92;;;25.33;;
23594;SDS011;11975;47.674;9.472;2022-11-15T11:10:03;25.73;;;24.20;;
23594;SDS011;11975;47.674;9.472;2022-11-15T11:12:42;24.30;;;22.88;;
23594;SDS011;11975;47.674;9.472;2022-11-15T11:15:09;25.85;;;24.35;;
23594;SDS011;11975;47.674;9.472;2022-11-15T11:36:27;29.08;;;27.42;;
23594;SDS011;11975;47.674;9.472;2022-11-15T11:39:21;29.65;;;27.95;;
23594;SDS011;11975;47.674;9.472;2022-11-15T11:42:07;28.88;;;27.17;;
23594;SDS011;11975;47.674;9.472;2022-11-15T11:47:32;29.88;;;27.98;;
23594;SDS011;11975;47.674;9.472;2022-11-15T11:50:14;28.48;;;26.77;;
23594;SDS011;11975;47.674;9.472;2022-11-15T11:52:54;29.05;;;27.35;;
23594;SDS011;11975;47.674;9.472;2022-11-15T11:55:23;29.52;;;27.73;;
23594;SDS011;11975;47.674;9.472;2022-11-15T11:58:17;28.42;;;26.83;;
23594;SDS011;11975;47.674;9.472;2022-11-15T12:03:41;27.65;;;26.05;;
23594;SDS011;11975;47.674;9.472;2022-11-15T12:09:17;26.77;;;24.98;;
23594;SDS011;11975;47.674;9.472;2022-11-15T12:12:01;25.77;;;24.23;;
23594;SDS011;11975;47.674;9.472;2022-11-15T12:14:43;26.60;;;25.00;;
23594;SDS011;11975;47.674;9.472;2022-11-15T12:17:17;26.70;;;25.08;;
23594;SDS011;11975;47.674;9.472;2022-11-15T12:19:47;28.58;;;26.25;;
23594;SDS011;11975;47.674;9.472;2022-11-15T12:22:20;26.42;;;24.73;;
23594;SDS011;11975;47.674;9.472;2022-11-15T12:25:00;25.42;;;23.85;;
23594;SDS011;11975;47.674;9.472;2022-11-15T12:27:38;25.45;;;23.85;;
23594;SDS011;11975;47.674;9.472;2022-11-15T12:30:17;24.88;;;23.40;;
23594;SDS011;11975;47.674;9.472;2022-11-15T12:35:36;24.65;;;23.25;;
23594;SDS011;11975;47.674;9.472;2022-11-15T12:38:04;23.20;;;21.85;;
23594;SDS011;11975;47.674;9.472;2022-11-15T12:40:34;24.45;;;23.02;;
23594;SDS011;11975;47.674;9.472;2022-11-15T12:43:03;22.92;;;21.55;;
23594;SDS011;11975;47.674;9.472;2022-11-15T12:50:52;25.77;;;24.27;;
23594;SDS011;11975;47.674;9.472;2022-11-15T13:06:46;23.38;;;22.08;;
23594;SDS011;11975;47.674;9.472;2022-11-15T13:11:58;22.40;;;21.15;;
23594;SDS011;11975;47.674;9.472;2022-11-15T13:19:59;24.00;;;22.60;;
23594;SDS011;11975;47.674;9.472;2022-11-15T13:22:38;23.87;;;22.53;;
23594;SDS011;11975;47.674;9.472;2022-11-15T13:30:51;24.27;;;22.88;;
23594;SDS011;11975;47.674;9.472;2022-11-15T13:33:23;23.65;;;22.05;;
23594;SDS011;11975;47.674;9.472;2022-11-15T13:35:52;22.27;;;20.98;;
23594;SDS011;11975;47.674;9.472;2022-11-15T13:40:53;23.75;;;22.30;;
23594;SDS011;11975;47.674;9.472;2022-11-15T13:49:00;22.90;;;21.60;;
23594;SDS011;11975;47.674;9.472;2022-11-15T13:51:29;23.10;;;21.80;;
23594;SDS011;11975;47.674;9.472;2022-11-15T13:56:40;23.52;;;22.13;;
23594;SDS011;11975;47.674;9.472;2022-11-15T13:59:16;23.30;;;21.90;;
23594;SDS011;11975;47.674;9.472;2022-11-15T14:01:49;23.73;;;22.38;;
23594;SDS011;11975;47.674;9.472;2022-11-15T14:04:17;25.25;;;23.73;;
23594;SDS011;11975;47.674;9.472;2022-11-15T14:06:45;22.38;;;21.10;;
23594;SDS011;11975;47.674;9.472;2022-11-15T14:11:49;25.60;;;24.10;;
23594;SDS011;11975;47.674;9.472;2022-11-15T14:14:19;26.27;;;24.77;;
23594;SDS011;11975;47.674;9.472;2022-11-15T14:16:47;23.70;;;22.33;;
23594;SDS011;11975;47.674;9.472;2022-11-15T14:24:43;23.40;;;22.05;;
23594;SDS011;11975;47.674;9.472;2022-11-15T14:29:52;23.85;;;22.42;;
23594;SDS011;11975;47.674;9.472;2022-11-15T14:32:22;23.15;;;21.85;;
23594;SDS011;11975;47.674;9.472;2022-11-15T14:34:57;22.75;;;21.45;;
23594;SDS011;11975;47.674;9.472;2022-11-15T14:37:25;22.40;;;21.08;;
23594;SDS011;11975;47.674;9.472;2022-11-15T14:40:01;22.85;;;21.55;;
23594;SDS011;11975;47.674;9.472;2022-11-15T14:42:28;22.92;;;21.63;;
23594;SDS011;11975;47.674;9.472;2022-11-15T14:44:54;22.38;;;21.08;;
23594;SDS011;11975;47.674;9.472;2022-11-15T14:47:20;21.88;;;20.58;;
23594;SDS011;11975;47.674;9.472;2022-11-15T14:49:46;22.30;;;21.00;;
23594;SDS011;11975;47.674;9.472;2022-11-15T14:54:53;22.42;;;21.13;;
23594;SDS011;11975;47.674;9.472;2022-11-15T14:57:20;23.67;;;22.33;;
23594;SDS011;11975;47.674;9.472;2022-11-15T14:59:46;23.55;;;22.25;;
23594;SDS011;11975;47.674;9.472;2022-11-15T15:02:16;25.65;;;24.15;;
23594;SDS011;11975;47.674;9.472;2022-11-15T15:04:46;22.55;;;21.25;;
23594;SDS011;11975;47.674;9.472;2022-11-15T15:07:12;24.52;;;23.13;;
23594;SDS011;11975;47.674;9.472;2022-11-15T15:09:38;24.50;;;23.10;;
23594;SDS011;11975;47.674;9.472;2022-11-15T15:12:04;23.63;;;22.13;;
23594;SDS011;11975;47.674;9.472;2022-11-15T15:14:35;23.48;;;22.17;;
23594;SDS011;11975;47.674;9.472;2022-11-15T15:17:01;25.17;;;23.60;;
23594;SDS011;11975;47.674;9.472;2022-11-15T15:19:28;24.42;;;23.02;;
23594;SDS011;11975;47.674;9.472;2022-11-15T15:21:54;21.92;;;20.73;;
23594;SDS011;11975;47.674;9.472;2022-11-15T15:24:20;23.58;;;22.08;;
23594;SDS011;11975;47.674;9.472;2022-11-15T15:26:46;23.30;;;21.80;;
23594;SDS011;11975;47.674;9.472;2022-11-15T15:29:12;21.75;;;20.45;;
23594;SDS011;11975;47.674;9.472;2022-11-15T15:31:37;23.45;;;22.05;;
23594;SDS011;11975;47.674;9.472;2022-11-15T15:34:03;23.50;;;22.10;;
23594;SDS011;11975;47.674;9.472;2022-11-15T15:37:33;22.73;;;21.42;;
23594;SDS011;11975;47.674;9.472;2022-11-15T15:39:59;24.25;;;22.83;;
23594;SDS011;11975;47.674;9.472;2022-11-15T15:42:25;22.65;;;21.35;;
23594;SDS011;11975;47.674;9.472;2022-11-15T15:44:51;24.42;;;22.50;;
